createdAt,value
2023-03-07T00:01:05.338Z,45.67
2023-03-07T00:03:32.807Z,45.67
2023-03-07T00:06:00.826Z,45.62
2023-03-07T00:08:27.999Z,44.80
2023-03-07T00:10:55.431Z,44.34
2023-03-07T00:13:22.577Z,44.84
2023-03-07T00:15:50.018Z,44.46
2023-03-07T00:18:17.463Z,44.83
2023-03-07T00:20:45.773Z,45.27
2023-03-07T00:23:12.916Z,45.84
2023-03-07T00:25:40.303Z,45.54
2023-03-07T00:28:07.477Z,45.54
2023-03-07T00:30:34.601Z,45.69
2023-03-07T00:33:02.164Z,45.07
2023-03-07T00:35:29.315Z,45.38
2023-03-07T00:37:56.476Z,44.75
2023-03-07T00:40:24.476Z,44.64
2023-03-07T00:42:51.592Z,45.00
2023-03-07T00:45:18.770Z,44.86
2023-03-07T00:47:46.208Z,45.21
2023-03-07T00:50:13.535Z,44.58
2023-03-07T00:52:40.734Z,44.77
2023-03-07T00:55:08.574Z,45.16
2023-03-07T00:57:35.699Z,44.49
2023-03-07T01:00:03.317Z,44.90
2023-03-07T01:02:31.000Z,44.60
2023-03-07T01:04:58.224Z,44.95
2023-03-07T01:07:25.395Z,44.86
2023-03-07T01:09:53.309Z,45.15
2023-03-07T01:12:20.559Z,45.10
2023-03-07T01:14:50.045Z,45.35
2023-03-07T01:17:20.746Z,45.40
2023-03-07T01:19:47.890Z,45.40
2023-03-07T01:22:15.170Z,45.25
2023-03-07T01:24:42.561Z,45.30
2023-03-07T01:27:09.730Z,45.08
2023-03-07T01:29:36.928Z,45.06
2023-03-07T01:32:04.484Z,44.88
2023-03-07T01:34:31.809Z,45.02
2023-03-07T01:36:58.994Z,44.85
2023-03-07T01:39:26.433Z,44.89
2023-03-07T01:41:53.995Z,45.18
2023-03-07T01:44:27.610Z,45.37
2023-03-07T01:46:58.654Z,45.68
2023-03-07T01:49:26.030Z,44.89
2023-03-07T01:52:01.589Z,45.65
2023-03-07T01:54:29.155Z,45.23
2023-03-07T01:56:56.513Z,45.02
2023-03-07T01:59:25.421Z,44.93
2023-03-07T02:01:52.898Z,44.65
2023-03-07T02:04:28.889Z,44.14
2023-03-07T02:06:56.112Z,44.32
2023-03-07T02:09:23.768Z,45.39
2023-03-07T02:11:50.982Z,45.40
2023-03-07T02:14:18.623Z,45.15
2023-03-07T02:16:46.065Z,45.17
2023-03-07T02:19:25.700Z,45.02
2023-03-07T02:22:25.305Z,44.84
2023-03-07T02:25:21.952Z,44.69
2023-03-07T02:27:49.742Z,44.90
2023-03-07T02:30:17.362Z,45.97
2023-03-07T02:32:45.289Z,45.33
2023-03-07T02:35:13.954Z,44.71
2023-03-07T02:37:41.719Z,44.71
2023-03-07T02:40:09.352Z,44.87
2023-03-07T02:42:37.995Z,45.00
2023-03-07T02:45:06.535Z,44.88
2023-03-07T02:47:33.954Z,45.29
2023-03-07T02:50:01.360Z,44.86
2023-03-07T02:52:30.183Z,44.95
2023-03-07T02:54:58.505Z,45.18
2023-03-07T02:57:25.942Z,45.13
2023-03-07T02:59:53.632Z,45.06
2023-03-07T03:02:20.815Z,44.82
2023-03-07T03:04:48.042Z,44.76
2023-03-07T03:07:15.588Z,44.25
2023-03-07T03:09:42.735Z,44.57
2023-03-07T03:12:09.947Z,44.30
2023-03-07T03:14:37.434Z,44.13
2023-03-07T03:17:05.305Z,44.48
2023-03-07T03:19:32.496Z,45.17
2023-03-07T03:21:59.967Z,44.78
2023-03-07T03:24:27.531Z,44.98
2023-03-07T03:26:58.072Z,44.10
2023-03-07T03:29:26.094Z,44.71
2023-03-07T03:31:54.234Z,43.89
2023-03-07T03:34:21.544Z,44.15
2023-03-07T03:36:51.107Z,43.78
2023-03-07T03:39:18.522Z,44.38
2023-03-07T03:41:45.869Z,43.81
2023-03-07T03:44:14.251Z,44.30
2023-03-07T03:46:41.470Z,45.05
2023-03-07T03:49:11.365Z,45.00
2023-03-07T03:51:38.843Z,44.19
2023-03-07T03:54:06.091Z,44.34
2023-03-07T03:56:33.268Z,44.67
2023-03-07T03:59:00.706Z,44.35
2023-03-07T04:01:28.234Z,44.66
2023-03-07T04:03:56.595Z,44.77
2023-03-07T04:06:25.414Z,44.90
2023-03-07T04:08:52.898Z,44.94
2023-03-07T04:11:20.969Z,45.06
2023-03-07T04:13:48.192Z,44.62
2023-03-07T04:16:15.813Z,44.74
2023-03-07T04:18:43.307Z,45.99
2023-03-07T04:21:11.175Z,45.09
2023-03-07T04:23:38.815Z,46.12
2023-03-07T04:26:07.235Z,45.57
2023-03-07T04:28:49.579Z,44.73
2023-03-07T04:31:18.613Z,46.19
2023-03-07T04:33:45.893Z,46.70
2023-03-07T04:36:13.382Z,45.92
2023-03-07T04:38:42.141Z,45.18
2023-03-07T04:41:19.181Z,45.41
2023-03-07T04:43:47.090Z,44.83
2023-03-07T04:46:15.325Z,44.88
2023-03-07T04:48:42.581Z,44.90
2023-03-07T04:51:10.247Z,45.05
2023-03-07T04:53:37.517Z,45.07
2023-03-07T04:56:05.721Z,45.06
2023-03-07T04:58:33.785Z,44.98
2023-03-07T05:01:01.557Z,45.05
2023-03-07T05:03:28.760Z,45.30
2023-03-07T05:05:56.586Z,45.08
2023-03-07T05:08:23.893Z,45.09
2023-03-07T05:10:51.748Z,44.76
2023-03-07T05:13:19.338Z,44.92
2023-03-07T05:15:51.529Z,44.85
2023-03-07T05:18:20.732Z,44.54
2023-03-07T05:20:48.127Z,45.42
2023-03-07T05:23:15.553Z,45.70
2023-03-07T05:25:43.655Z,46.02
2023-03-07T05:28:11.092Z,45.05
2023-03-07T05:30:38.289Z,45.19
2023-03-07T05:33:05.779Z,45.00
2023-03-07T05:35:33.094Z,44.27
2023-03-07T05:38:00.608Z,44.63
2023-03-07T05:40:28.295Z,45.48
2023-03-07T05:42:55.482Z,44.89
2023-03-07T05:45:23.390Z,45.43
2023-03-07T05:47:50.886Z,45.72
2023-03-07T05:50:19.162Z,44.41
2023-03-07T05:52:46.370Z,44.22
2023-03-07T05:55:13.834Z,44.68
2023-03-07T05:57:41.166Z,45.30
2023-03-07T06:00:08.843Z,45.45
2023-03-07T06:02:42.392Z,45.81
2023-03-07T06:05:10.287Z,46.00
2023-03-07T06:07:37.452Z,45.78
2023-03-07T06:10:04.995Z,46.37
2023-03-07T06:12:32.499Z,45.26
2023-03-07T06:14:59.692Z,44.92
2023-03-07T06:17:26.863Z,45.70
2023-03-07T06:19:54.441Z,45.69
2023-03-07T06:22:21.686Z,45.03
2023-03-07T06:24:48.968Z,45.74
2023-03-07T06:27:16.409Z,44.70
2023-03-07T06:29:43.798Z,44.40
2023-03-07T06:32:11.025Z,44.48
2023-03-07T06:34:38.489Z,44.77
2023-03-07T06:37:05.819Z,44.81
2023-03-07T06:39:32.995Z,45.01
2023-03-07T06:42:00.762Z,44.41
2023-03-07T06:44:27.900Z,44.99
2023-03-07T06:46:55.319Z,45.33
2023-03-07T06:49:22.856Z,44.55
2023-03-07T06:51:50.340Z,44.14
2023-03-07T06:54:17.830Z,44.35
2023-03-07T06:56:45.651Z,44.38
2023-03-07T06:59:13.224Z,45.04
2023-03-07T07:01:40.342Z,43.92
2023-03-07T07:04:07.948Z,44.34
2023-03-07T07:06:35.284Z,44.74
2023-03-07T07:09:03.097Z,43.99
2023-03-07T07:11:30.743Z,43.89
2023-03-07T07:13:58.350Z,44.35
2023-03-07T07:16:25.599Z,44.11
2023-03-07T07:18:53.130Z,43.93
2023-03-07T07:21:20.401Z,44.15
2023-03-07T07:23:47.774Z,43.22
2023-03-07T07:26:15.333Z,43.14
2023-03-07T07:28:42.633Z,43.34
2023-03-07T07:31:09.865Z,42.75
2023-03-07T07:33:37.370Z,42.81
2023-03-07T07:36:05.033Z,42.56
2023-03-07T07:38:34.653Z,42.99
2023-03-07T07:41:02.402Z,42.51
2023-03-07T07:43:29.748Z,42.91
2023-03-07T07:45:58.080Z,42.94
2023-03-07T07:48:25.604Z,42.74
2023-03-07T07:50:53.880Z,42.47
2023-03-07T07:53:21.297Z,43.17
2023-03-07T07:55:49.044Z,42.96
2023-03-07T07:58:16.567Z,42.54
2023-03-07T08:00:45.608Z,42.14
2023-03-07T08:03:13.050Z,42.74
2023-03-07T08:05:44.065Z,42.56
2023-03-07T08:08:11.234Z,41.39
2023-03-07T08:10:43.059Z,41.25
2023-03-07T08:13:13.708Z,41.43
2023-03-07T08:15:41.431Z,41.60
2023-03-07T08:18:08.968Z,42.31
2023-03-07T08:20:36.790Z,41.52
2023-03-07T08:23:04.270Z,39.67
2023-03-07T08:25:31.526Z,39.00
2023-03-07T08:27:58.701Z,38.37
2023-03-07T08:30:26.687Z,35.67
2023-03-07T08:32:54.177Z,34.77
2023-03-07T08:35:21.548Z,35.50
2023-03-07T08:37:49.237Z,34.76
2023-03-07T08:40:16.494Z,34.12
2023-03-07T08:42:43.732Z,34.67
2023-03-07T08:45:11.272Z,33.37
2023-03-07T08:47:38.445Z,32.91
2023-03-07T08:50:05.778Z,32.56
2023-03-07T08:52:33.220Z,33.03
2023-03-07T08:55:00.356Z,33.61
2023-03-07T08:57:27.510Z,33.91
2023-03-07T08:59:54.953Z,33.53
2023-03-07T09:02:22.112Z,34.15
2023-03-07T09:04:49.294Z,33.47
2023-03-07T09:07:16.744Z,33.59
2023-03-07T09:09:43.863Z,32.60
2023-03-07T09:12:10.987Z,32.91
2023-03-07T09:14:38.369Z,32.93
2023-03-07T09:17:05.533Z,33.21
2023-03-07T09:19:32.780Z,33.55
2023-03-07T09:22:00.215Z,33.76
2023-03-07T09:24:27.373Z,35.08
2023-03-07T09:26:54.509Z,35.76
2023-03-07T09:29:21.942Z,34.94
2023-03-07T09:31:49.178Z,35.19
2023-03-07T09:34:16.335Z,36.78
2023-03-07T09:36:43.740Z,36.81
2023-03-07T09:39:14.550Z,37.23
2023-03-07T09:41:55.073Z,38.37
2023-03-07T09:44:24.862Z,36.88
2023-03-07T09:47:10.625Z,36.43
2023-03-07T09:49:45.085Z,34.96
2023-03-07T09:52:16.925Z,33.98
2023-03-07T09:54:46.171Z,34.94
2023-03-07T09:57:16.762Z,35.07
2023-03-07T09:59:46.786Z,36.12
2023-03-07T10:02:22.994Z,37.03
2023-03-07T10:04:50.393Z,37.21
2023-03-07T10:07:17.615Z,37.09
2023-03-07T10:09:44.736Z,36.17
2023-03-07T10:12:18.299Z,37.57
2023-03-07T10:14:53.138Z,37.42
2023-03-07T10:17:26.772Z,35.46
2023-03-07T10:19:54.652Z,35.14
2023-03-07T10:22:34.369Z,35.51
2023-03-07T10:25:04.506Z,33.86
2023-03-07T10:27:31.975Z,33.62
2023-03-07T10:29:59.929Z,31.99
2023-03-07T10:32:47.286Z,31.49
2023-03-07T10:35:14.780Z,33.08
2023-03-07T10:37:51.110Z,33.61
2023-03-07T10:40:24.512Z,32.39
2023-03-07T10:42:52.200Z,32.64
2023-03-07T10:45:19.809Z,33.16
2023-03-07T10:47:47.036Z,32.74
2023-03-07T10:50:29.518Z,33.60
2023-03-07T10:53:00.681Z,33.37
2023-03-07T10:55:30.767Z,33.18
2023-03-07T10:58:16.826Z,33.80
2023-03-07T11:00:46.981Z,37.56
2023-03-07T11:03:22.068Z,40.17
2023-03-07T11:05:49.488Z,38.86
2023-03-07T11:08:21.048Z,39.78
2023-03-07T11:10:48.217Z,38.92
2023-03-07T11:13:19.301Z,40.41
2023-03-07T11:15:46.942Z,40.79
2023-03-07T11:18:26.229Z,41.64
2023-03-07T11:20:53.704Z,43.19
2023-03-07T11:23:30.694Z,40.76
2023-03-07T11:26:14.246Z,42.14
2023-03-07T11:28:41.525Z,44.60
2023-03-07T11:31:21.079Z,45.79
2023-03-07T11:34:01.219Z,47.59
2023-03-07T11:36:32.713Z,48.29
2023-03-07T11:39:03.872Z,49.03
2023-03-07T11:41:32.008Z,49.64
2023-03-07T11:43:59.336Z,48.94
2023-03-07T11:46:26.528Z,48.82
2023-03-07T11:49:12.444Z,49.04
2023-03-07T11:52:05.846Z,49.06
2023-03-07T11:54:39.347Z,48.11
2023-03-07T11:57:29.780Z,50.61
2023-03-07T11:59:57.173Z,52.24
2023-03-07T12:02:43.332Z,50.81
2023-03-07T12:05:21.519Z,50.06
2023-03-07T12:08:03.100Z,48.61
2023-03-07T12:10:30.672Z,49.19
2023-03-07T12:13:16.630Z,48.05
2023-03-07T12:16:02.994Z,48.16
2023-03-07T12:18:53.462Z,48.87
2023-03-07T12:21:20.921Z,49.50
2023-03-07T12:23:56.856Z,50.34
2023-03-07T12:26:26.149Z,49.48
2023-03-07T12:28:54.425Z,49.61
2023-03-07T12:31:26.108Z,49.68
2023-03-07T12:34:07.178Z,49.34
2023-03-07T12:36:54.590Z,48.63
2023-03-07T12:39:33.143Z,48.38
2023-03-07T12:42:04.473Z,49.92
2023-03-07T12:44:42.650Z,48.90
2023-03-07T12:47:25.730Z,48.58
2023-03-07T12:50:02.588Z,50.06
2023-03-07T12:52:31.401Z,50.12
2023-03-07T12:55:05.046Z,51.89
2023-03-07T12:57:35.272Z,51.82
2023-03-07T13:00:06.237Z,50.90
2023-03-07T13:02:35.061Z,49.65
2023-03-07T13:05:02.545Z,51.60
2023-03-07T13:07:30.164Z,51.77
2023-03-07T13:09:58.094Z,52.98
2023-03-07T13:12:29.584Z,52.89
2023-03-07T13:14:57.574Z,51.95
2023-03-07T13:17:30.605Z,53.15
2023-03-07T13:19:58.797Z,52.89
2023-03-07T13:22:26.018Z,53.23
2023-03-07T13:24:56.892Z,53.13
2023-03-07T13:27:27.811Z,52.35
2023-03-07T13:30:04.225Z,52.11
2023-03-07T13:32:50.656Z,52.48
2023-03-07T13:35:37.775Z,52.88
2023-03-07T13:38:15.073Z,53.15
2023-03-07T13:40:46.444Z,53.38
2023-03-07T13:43:20.042Z,51.84
2023-03-07T13:45:56.895Z,52.10
2023-03-07T13:48:27.657Z,51.72
2023-03-07T13:50:54.782Z,51.46
2023-03-07T13:53:27.850Z,54.14
2023-03-07T13:56:02.491Z,54.88
2023-03-07T13:58:46.521Z,53.35
2023-03-07T14:01:17.150Z,53.90
2023-03-07T14:03:51.831Z,53.85
2023-03-07T14:06:23.214Z,52.07
2023-03-07T14:08:50.664Z,52.74
2023-03-07T14:11:23.904Z,54.25
2023-03-07T14:14:01.738Z,54.50
2023-03-07T14:16:49.235Z,54.06
2023-03-07T14:19:27.476Z,54.81
2023-03-07T14:22:05.592Z,55.40
2023-03-07T14:24:36.269Z,54.99
2023-03-07T14:27:04.261Z,55.60
2023-03-07T14:29:31.561Z,54.15
2023-03-07T14:31:59.568Z,55.82
2023-03-07T14:34:27.033Z,56.15
2023-03-07T14:36:57.905Z,57.32
2023-03-07T14:39:26.051Z,58.20
2023-03-07T14:41:53.186Z,56.79
2023-03-07T14:44:30.883Z,57.33
2023-03-07T14:47:07.406Z,58.33
2023-03-07T14:49:44.377Z,57.56
2023-03-07T14:52:18.713Z,57.14
2023-03-07T14:54:56.911Z,56.39
2023-03-07T14:57:27.360Z,57.69
2023-03-07T15:00:06.941Z,57.53
2023-03-07T15:02:34.416Z,59.43
2023-03-07T15:05:02.113Z,58.83
2023-03-07T15:07:29.282Z,57.81
2023-03-07T15:09:56.751Z,58.35
2023-03-07T15:12:24.991Z,57.60
2023-03-07T15:14:52.977Z,58.78
2023-03-07T15:17:25.321Z,59.06
2023-03-07T15:20:11.432Z,57.83
2023-03-07T15:22:40.239Z,56.32
2023-03-07T15:25:16.708Z,56.65
2023-03-07T15:27:44.152Z,55.48
2023-03-07T15:30:19.064Z,54.13
2023-03-07T15:32:46.582Z,55.39
2023-03-07T15:35:17.912Z,55.05
2023-03-07T15:37:52.477Z,52.90
2023-03-07T15:40:35.705Z,51.31
2023-03-07T15:43:04.507Z,50.91
2023-03-07T15:45:36.275Z,49.43
2023-03-07T15:48:29.919Z,48.72
2023-03-07T15:51:01.386Z,48.65
2023-03-07T15:53:36.761Z,47.89
2023-03-07T15:56:05.632Z,47.02
2023-03-07T15:58:34.043Z,47.25
2023-03-07T16:01:14.659Z,47.51
2023-03-07T16:03:52.303Z,47.06
2023-03-07T16:06:31.688Z,46.34
2023-03-07T16:08:59.246Z,46.32
2023-03-07T16:11:26.396Z,46.71
2023-03-07T16:13:53.532Z,46.36
2023-03-07T16:16:24.307Z,45.80
2023-03-07T16:18:51.586Z,45.49
2023-03-07T16:21:19.249Z,46.52
2023-03-07T16:23:47.042Z,49.21
2023-03-07T16:26:16.244Z,48.33
2023-03-07T16:28:44.343Z,48.10
2023-03-07T16:31:12.337Z,49.53
2023-03-07T16:33:39.678Z,46.38
2023-03-07T16:36:07.153Z,48.68
2023-03-07T16:38:34.632Z,47.50
2023-03-07T16:41:03.668Z,47.40
2023-03-07T16:43:34.987Z,47.51
2023-03-07T16:46:03.217Z,45.69
2023-03-07T16:48:30.604Z,47.88
2023-03-07T16:50:57.730Z,50.44
2023-03-07T16:53:25.166Z,50.92
2023-03-07T16:55:52.888Z,49.08
2023-03-07T16:58:21.418Z,51.59
2023-03-07T17:00:48.955Z,50.00
2023-03-07T17:03:16.157Z,48.28
2023-03-07T17:05:43.418Z,48.01
2023-03-07T17:08:10.911Z,49.86
2023-03-07T17:10:38.231Z,49.45
2023-03-07T17:13:05.909Z,48.14
2023-03-07T17:15:33.453Z,46.95
2023-03-07T17:18:00.938Z,47.40
2023-03-07T17:20:28.382Z,47.67
2023-03-07T17:22:56.108Z,48.20
2023-03-07T17:25:23.340Z,48.98
2023-03-07T17:27:55.153Z,51.00
2023-03-07T17:30:24.094Z,49.44
2023-03-07T17:32:51.332Z,48.87
2023-03-07T17:35:18.594Z,50.69
2023-03-07T17:37:46.315Z,50.59
2023-03-07T17:40:13.618Z,52.44
2023-03-07T17:42:41.398Z,49.05
2023-03-07T17:45:11.628Z,49.26
2023-03-07T17:47:38.901Z,50.46
2023-03-07T17:50:07.524Z,48.13
2023-03-07T17:52:35.459Z,50.03
2023-03-07T17:55:02.762Z,48.69
2023-03-07T17:57:30.102Z,47.63
2023-03-07T17:59:57.789Z,47.09
2023-03-07T18:02:25.939Z,46.62
2023-03-07T18:04:53.778Z,47.01
2023-03-07T18:07:21.910Z,47.66
2023-03-07T18:09:56.134Z,50.04
2023-03-07T18:12:33.592Z,50.37
2023-03-07T18:15:00.790Z,50.93
2023-03-07T18:17:31.387Z,49.21
2023-03-07T18:20:11.031Z,50.13
2023-03-07T18:22:38.349Z,49.97
2023-03-07T18:25:07.234Z,49.76
2023-03-07T18:27:34.637Z,49.90
2023-03-07T18:30:01.819Z,49.02
2023-03-07T18:32:31.013Z,49.25
2023-03-07T18:34:58.516Z,49.56
2023-03-07T18:37:25.677Z,52.30
2023-03-07T18:39:53.087Z,51.24
2023-03-07T18:42:20.442Z,50.61
2023-03-07T18:44:48.028Z,51.16
2023-03-07T18:47:15.489Z,48.68
2023-03-07T18:49:42.805Z,50.71
2023-03-07T18:52:10.153Z,48.87
2023-03-07T18:54:37.650Z,48.22
2023-03-07T18:57:04.974Z,48.70
2023-03-07T18:59:32.128Z,47.98
2023-03-07T19:02:03.065Z,48.24
2023-03-07T19:04:31.454Z,50.57
2023-03-07T19:07:00.633Z,50.96
2023-03-07T19:09:28.072Z,50.43
2023-03-07T19:11:55.453Z,48.66
2023-03-07T19:14:22.672Z,49.22
2023-03-07T19:16:50.155Z,47.90
2023-03-07T19:19:17.562Z,47.24
2023-03-07T19:21:44.912Z,48.48
2023-03-07T19:24:13.173Z,48.77
2023-03-07T19:26:41.657Z,52.82
2023-03-07T19:29:11.096Z,50.05
2023-03-07T19:31:38.698Z,51.65
2023-03-07T19:34:06.461Z,53.73
2023-03-07T19:36:37.449Z,54.11
2023-03-07T19:39:04.909Z,52.79
2023-03-07T19:41:32.330Z,54.11
2023-03-07T19:44:00.016Z,54.49
2023-03-07T19:46:27.491Z,52.16
2023-03-07T19:48:54.844Z,53.82
2023-03-07T19:51:23.249Z,56.38
2023-03-07T19:53:50.793Z,52.58
2023-03-07T19:56:19.786Z,54.78
2023-03-07T19:58:47.090Z,54.50
2023-03-07T20:01:15.490Z,54.68
2023-03-07T20:03:43.183Z,56.69
2023-03-07T20:06:11.346Z,53.60
2023-03-07T20:08:38.579Z,53.98
2023-03-07T20:11:10.047Z,55.85
2023-03-07T20:13:37.782Z,55.65
2023-03-07T20:16:05.341Z,52.89
2023-03-07T20:18:33.362Z,53.03
2023-03-07T20:21:04.579Z,54.56
2023-03-07T20:23:31.771Z,52.85
2023-03-07T20:26:03.705Z,51.01
2023-03-07T20:28:31.255Z,50.86
2023-03-07T20:30:58.857Z,49.73
2023-03-07T20:33:26.248Z,50.60
2023-03-07T20:36:00.823Z,50.03
2023-03-07T20:38:28.303Z,49.74
2023-03-07T20:41:08.735Z,49.05
2023-03-07T20:43:36.380Z,48.49
2023-03-07T20:46:08.018Z,48.36
2023-03-07T20:48:35.848Z,48.21
2023-03-07T20:51:06.971Z,47.67
2023-03-07T20:53:34.219Z,47.65
2023-03-07T20:56:02.594Z,47.56
2023-03-07T20:58:30.621Z,47.38
2023-03-07T21:00:58.120Z,47.28
2023-03-07T21:03:25.914Z,47.58
2023-03-07T21:05:53.955Z,47.63
2023-03-07T21:08:21.519Z,47.30
2023-03-07T21:11:02.534Z,47.29
2023-03-07T21:13:30.474Z,47.16
2023-03-07T21:15:58.989Z,47.44
2023-03-07T21:18:26.691Z,47.74
2023-03-07T21:20:54.159Z,47.48
2023-03-07T21:23:21.695Z,47.44
2023-03-07T21:25:49.073Z,47.29
2023-03-07T21:28:16.530Z,46.94
2023-03-07T21:30:44.076Z,48.35
2023-03-07T21:33:11.706Z,47.53
2023-03-07T21:35:39.255Z,47.84
2023-03-07T21:38:06.749Z,47.66
2023-03-07T21:40:34.267Z,49.04
2023-03-07T21:43:01.671Z,48.94
2023-03-07T21:45:31.539Z,50.86
2023-03-07T21:47:58.743Z,52.48
2023-03-07T21:50:26.018Z,50.12
2023-03-07T21:52:53.897Z,49.75
2023-03-07T21:55:21.346Z,51.69
2023-03-07T21:57:48.653Z,49.84
2023-03-07T22:00:17.200Z,49.63
2023-03-07T22:02:45.825Z,50.37
2023-03-07T22:05:13.035Z,49.29
2023-03-07T22:07:40.204Z,48.80
2023-03-07T22:10:08.027Z,48.95
2023-03-07T22:12:35.225Z,49.22
2023-03-07T22:15:02.406Z,48.96
2023-03-07T22:17:30.069Z,48.76
2023-03-07T22:19:57.214Z,48.49
2023-03-07T22:22:24.415Z,49.87
2023-03-07T22:24:52.309Z,49.56
2023-03-07T22:27:19.508Z,49.42
2023-03-07T22:29:46.705Z,49.68
2023-03-07T22:32:14.147Z,49.09
2023-03-07T22:34:41.335Z,48.92
2023-03-07T22:37:08.585Z,48.37
2023-03-07T22:39:36.056Z,48.60
2023-03-07T22:42:03.267Z,48.74
2023-03-07T22:44:30.452Z,48.12
2023-03-07T22:46:57.900Z,48.17
2023-03-07T22:49:26.716Z,47.79
2023-03-07T22:51:54.019Z,48.86
2023-03-07T22:54:21.445Z,48.56
2023-03-07T22:56:48.624Z,48.28
2023-03-07T22:59:15.718Z,47.95
2023-03-07T23:01:43.178Z,47.82
2023-03-07T23:04:10.366Z,47.96
2023-03-07T23:06:37.725Z,47.70
2023-03-07T23:09:05.850Z,47.95
2023-03-07T23:11:33.201Z,47.56
2023-03-07T23:14:00.536Z,47.72
2023-03-07T23:16:32.162Z,47.76
2023-03-07T23:18:59.891Z,47.22
2023-03-07T23:21:29.092Z,47.39
2023-03-07T23:23:56.598Z,47.41
2023-03-07T23:26:25.288Z,47.52
2023-03-07T23:28:52.460Z,47.49
2023-03-07T23:31:23.824Z,48.06
2023-03-07T23:33:53.836Z,48.04
2023-03-07T23:36:21.255Z,47.47
2023-03-07T23:38:48.831Z,47.85
2023-03-07T23:41:16.489Z,48.04
2023-03-07T23:43:44.752Z,48.42
2023-03-07T23:46:11.970Z,49.43
2023-03-07T23:48:39.152Z,49.31
2023-03-07T23:51:06.614Z,48.60
2023-03-07T23:53:33.737Z,48.24
2023-03-07T23:56:00.892Z,48.12
2023-03-07T23:58:28.367Z,48.74
